PWSweather.com
Personal Weather Stations
Station Observations
KMDSOLOM1
solomons, Solomons, MD 20688

solomonsSolomons, MD 20688

Lat: 38.32, Lon: -76.45

Elevation: 5

Station Type:

http://www.act-us.info/weather

High Low Average
Temperature 62.9°F17.2°C 49.4°F9.7°C 57.6°F14.2°C
Dew Point 54.4°F12.4°C 30.5°F-0.8°C 45.7°F7.6°C
Winds 21.0 mph 33.8 kmh 2.0 mph 3.2 kmh 9.0 mph S14.5 kmh S
Wind Gusts 29.0 mph46.7 kmh 4.0 mph6.4 kmh 17.0 mph27.4 kmh
Humidity 77% 43% 65%
Pressure 29.89 in1012.2 mb 29.64 in1003.7 mb -
Precipitation 0.00 in0.0 mm - -
Hour Temp Dew Point Humidity Winds Wind Gusts Pressure Precip Precip Rate Daily Precip Total
12:00 AM 60.7°F15.9°C 50.5°F10.3°C 69% 7.0 mph ESE11.3 kmh ESE 11.0 mph17.7 kmh 29.72 in1006.4 mb 0.00 in0.0 mm 0.00 in0.0 mm 0.00 in0.0 mm
12:05 AM 60.7°F15.9°C 50.5°F10.3°C 69% 10.0 mph E16.1 kmh E 13.0 mph20.9 kmh 29.73 in1006.8 mb 0.00 in0.0 mm 0.00 in0.0 mm 0.00 in0.0 mm
12:10 AM 61.0°F16.1°C 50.4°F10.2°C 68% 4.0 mph ESE6.4 kmh ESE 16.0 mph25.7 kmh 29.72 in1006.4 mb 0.00 in0.0 mm 0.00 in0.0 mm 0.00 in0.0 mm
12:15 AM 61.2°F16.2°C 50.6°F10.3°C 68% 5.0 mph SE8.0 kmh SE 16.0 mph25.7 kmh 29.72 in1006.4 mb 0.00 in0.0 mm 0.00 in0.0 mm 0.00 in0.0 mm
12:20 AM 61.3°F16.3°C 50.7°F10.4°C 68% 12.0 mph ESE19.3 kmh ESE 16.0 mph25.7 kmh 29.72 in1006.4 mb 0.00 in0.0 mm 0.00 in0.0 mm 0.00 in0.0 mm
12:25 AM 61.5°F16.4°C 50.5°F10.3°C 67% 8.0 mph SE12.9 kmh SE 14.0 mph22.5 kmh 29.72 in1006.4 mb 0.00 in0.0 mm 0.00 in0.0 mm 0.00 in0.0 mm
12:30 AM 61.8°F16.6°C 50.3°F10.2°C 66% 9.0 mph SE14.5 kmh SE 15.0 mph24.1 kmh 29.71 in1006.1 mb 0.00 in0.0 mm 0.00 in0.0 mm 0.00 in0.0 mm
12:35 AM 61.9°F16.6°C 50.4°F10.2°C 66% 9.0 mph ESE14.5 kmh ESE 16.0 mph25.7 kmh 29.71 in1006.1 mb 0.00 in0.0 mm 0.00 in0.0 mm 0.00 in0.0 mm
12:40 AM 62.2°F16.8°C 50.7°F10.4°C 66% 7.0 mph SE11.3 kmh SE 8.0 mph12.9 kmh 29.71 in1006.1 mb 0.00 in0.0 mm 0.00 in0.0 mm 0.00 in0.0 mm
12:45 AM 61.9°F16.6°C 50.4°F10.2°C 66% 6.0 mph ESE9.7 kmh ESE 12.0 mph19.3 kmh 29.70 in1005.8 mb 0.00 in0.0 mm 0.00 in0.0 mm 0.00 in0.0 mm
12:50 AM 61.6°F16.4°C 50.1°F10.1°C 66% 12.0 mph SE19.3 kmh SE 14.0 mph22.5 kmh 29.70 in1005.8 mb 0.00 in0.0 mm 0.00 in0.0 mm 0.00 in0.0 mm
12:55 AM 61.6°F16.4°C 50.1°F10.1°C 66% 12.0 mph ESE19.3 kmh ESE 12.0 mph19.3 kmh 29.70 in1005.8 mb 0.00 in0.0 mm 0.00 in0.0 mm 0.00 in0.0 mm
01:00 AM 61.8°F16.6°C 50.3°F10.2°C 66% 7.0 mph ESE11.3 kmh ESE 17.0 mph27.4 kmh 29.70 in1005.8 mb 0.00 in0.0 mm 0.00 in0.0 mm 0.00 in0.0 mm
01:05 AM 61.7°F16.5°C 50.2°F10.1°C 66% 7.0 mph SE11.3 kmh SE 17.0 mph27.4 kmh 29.70 in1005.8 mb 0.00 in0.0 mm 0.00 in0.0 mm 0.00 in0.0 mm
01:10 AM 61.7°F16.5°C 50.2°F10.1°C 66% 6.0 mph ESE9.7 kmh ESE 10.0 mph16.1 kmh 29.70 in1005.8 mb 0.00 in0.0 mm 0.00 in0.0 mm 0.00 in0.0 mm
01:15 AM 61.4°F16.3°C 50.4°F10.2°C 67% 3.0 mph ESE4.8 kmh ESE 10.0 mph16.1 kmh 29.69 in1005.4 mb 0.00 in0.0 mm 0.00 in0.0 mm 0.00 in0.0 mm
01:20 AM 61.3°F16.3°C 50.3°F10.2°C 67% 5.0 mph SE8.0 kmh SE 13.0 mph20.9 kmh 29.69 in1005.4 mb 0.00 in0.0 mm 0.00 in0.0 mm 0.00 in0.0 mm
01:25 AM 61.2°F16.2°C 50.2°F10.1°C 67% 9.0 mph SE14.5 kmh SE 9.0 mph14.5 kmh 29.69 in1005.4 mb 0.00 in0.0 mm 0.00 in0.0 mm 0.00 in0.0 mm
01:30 AM 61.3°F16.3°C 50.3°F10.2°C 67% 7.0 mph SE11.3 kmh SE 15.0 mph24.1 kmh 29.69 in1005.4 mb 0.00 in0.0 mm 0.00 in0.0 mm 0.00 in0.0 mm
01:35 AM 61.2°F16.2°C 50.2°F10.1°C 67% 5.0 mph SE8.0 kmh SE 15.0 mph24.1 kmh 29.69 in1005.4 mb 0.00 in0.0 mm 0.00 in0.0 mm 0.00 in0.0 mm
01:40 AM 60.9°F16.1°C 50.3°F10.2°C 68% 7.0 mph SE11.3 kmh SE 20.0 mph32.2 kmh 29.68 in1005.1 mb 0.00 in0.0 mm 0.00 in0.0 mm 0.00 in0.0 mm
01:45 AM 60.9°F16.1°C 50.3°F10.2°C 68% 6.0 mph ESE9.7 kmh ESE 20.0 mph32.2 kmh 29.68 in1005.1 mb 0.00 in0.0 mm 0.00 in0.0 mm 0.00 in0.0 mm
01:50 AM 60.9°F16.1°C 50.3°F10.2°C 68% 3.0 mph ESE4.8 kmh ESE 23.0 mph37.0 kmh 29.68 in1005.1 mb 0.00 in0.0 mm 0.00 in0.0 mm 0.00 in0.0 mm
01:55 AM 60.7°F15.9°C 50.5°F10.3°C 69% 9.0 mph ESE14.5 kmh ESE 9.0 mph14.5 kmh 29.68 in1005.1 mb 0.00 in0.0 mm 0.00 in0.0 mm 0.00 in0.0 mm
02:00 AM 60.5°F15.8°C 50.3°F10.2°C 69% 7.0 mph ESE11.3 kmh ESE 16.0 mph25.7 kmh 29.67 in1004.7 mb 0.00 in0.0 mm 0.00 in0.0 mm 0.00 in0.0 mm
02:05 AM 60.5°F15.8°C 50.3°F10.2°C 69% 9.0 mph SE14.5 kmh SE 20.0 mph32.2 kmh 29.67 in1004.7 mb 0.00 in0.0 mm 0.00 in0.0 mm 0.00 in0.0 mm
02:10 AM 60.4°F15.8°C 50.2°F10.1°C 69% 6.0 mph ESE9.7 kmh ESE 9.0 mph14.5 kmh 29.67 in1004.7 mb 0.00 in0.0 mm 0.00 in0.0 mm 0.00 in0.0 mm
02:15 AM 60.5°F15.8°C 50.3°F10.2°C 69% 3.0 mph ESE4.8 kmh ESE 17.0 mph27.4 kmh 29.66 in1004.4 mb 0.00 in0.0 mm 0.00 in0.0 mm 0.00 in0.0 mm
02:20 AM 60.6°F15.9°C 50.4°F10.2°C 69% 7.0 mph SE11.3 kmh SE 17.0 mph27.4 kmh 29.66 in1004.4 mb 0.00 in0.0 mm 0.00 in0.0 mm 0.00 in0.0 mm
02:25 AM 60.5°F15.8°C 50.7°F10.4°C 70% 9.0 mph SE14.5 kmh SE 10.0 mph16.1 kmh 29.66 in1004.4 mb 0.00 in0.0 mm 0.00 in0.0 mm 0.00 in0.0 mm
02:30 AM 60.5°F15.8°C 50.7°F10.4°C 70% 7.0 mph SE11.3 kmh SE 12.0 mph19.3 kmh 29.66 in1004.4 mb 0.00 in0.0 mm 0.00 in0.0 mm 0.00 in0.0 mm
02:35 AM 60.5°F15.8°C 50.7°F10.4°C 70% 9.0 mph ESE14.5 kmh ESE 15.0 mph24.1 kmh 29.66 in1004.4 mb 0.00 in0.0 mm 0.00 in0.0 mm 0.00 in0.0 mm
02:40 AM 60.5°F15.8°C 50.7°F10.4°C 70% 4.0 mph E6.4 kmh E 13.0 mph20.9 kmh 29.66 in1004.4 mb 0.00 in0.0 mm 0.00 in0.0 mm 0.00 in0.0 mm
02:45 AM 60.5°F15.8°C 50.7°F10.4°C 70% 4.0 mph ESE6.4 kmh ESE 16.0 mph25.7 kmh 29.66 in1004.4 mb 0.00 in0.0 mm 0.00 in0.0 mm 0.00 in0.0 mm
02:50 AM 60.4°F15.8°C 50.6°F10.3°C 70% 6.0 mph E9.7 kmh E 16.0 mph25.7 kmh 29.66 in1004.4 mb 0.00 in0.0 mm 0.00 in0.0 mm 0.00 in0.0 mm
02:55 AM 60.1°F15.6°C 50.7°F10.4°C 71% 6.0 mph E9.7 kmh E 7.0 mph11.3 kmh 29.65 in1004.1 mb 0.00 in0.0 mm 0.00 in0.0 mm 0.00 in0.0 mm
03:00 AM 60.1°F15.6°C 50.7°F10.4°C 71% 6.0 mph ESE9.7 kmh ESE 14.0 mph22.5 kmh 29.65 in1004.1 mb 0.00 in0.0 mm 0.00 in0.0 mm 0.00 in0.0 mm
03:05 AM 59.8°F15.4°C 50.8°F10.4°C 72% 10.0 mph ESE16.1 kmh ESE 15.0 mph24.1 kmh 29.65 in1004.1 mb 0.00 in0.0 mm 0.00 in0.0 mm 0.00 in0.0 mm
03:10 AM 59.7°F15.4°C 51.0°F10.6°C 73% 8.0 mph ESE12.9 kmh ESE 12.0 mph19.3 kmh 29.65 in1004.1 mb 0.00 in0.0 mm 0.00 in0.0 mm 0.00 in0.0 mm
03:15 AM 59.6°F15.3°C 51.0°F10.6°C 73% 6.0 mph ESE9.7 kmh ESE 16.0 mph25.7 kmh 29.65 in1004.1 mb 0.00 in0.0 mm 0.00 in0.0 mm 0.00 in0.0 mm
03:20 AM 59.6°F15.3°C 51.0°F10.6°C 73% 9.0 mph ESE14.5 kmh ESE 16.0 mph25.7 kmh 29.64 in1003.7 mb 0.00 in0.0 mm 0.00 in0.0 mm 0.00 in0.0 mm
03:25 AM 59.4°F15.2°C 51.1°F10.6°C 74% 8.0 mph E12.9 kmh E 11.0 mph17.7 kmh 29.64 in1003.7 mb 0.00 in0.0 mm 0.00 in0.0 mm 0.00 in0.0 mm
03:30 AM 59.3°F15.2°C 51.0°F10.6°C 74% 6.0 mph E9.7 kmh E 17.0 mph27.4 kmh 29.64 in1003.7 mb 0.00 in0.0 mm 0.00 in0.0 mm 0.00 in0.0 mm
03:35 AM 59.4°F15.2°C 51.1°F10.6°C 74% 8.0 mph ESE12.9 kmh ESE 17.0 mph27.4 kmh 29.64 in1003.7 mb 0.00 in0.0 mm 0.00 in0.0 mm 0.00 in0.0 mm
03:40 AM 59.5°F15.3°C 51.2°F10.7°C 74% 6.0 mph E9.7 kmh E 6.0 mph9.7 kmh 29.64 in1003.7 mb 0.00 in0.0 mm 0.00 in0.0 mm 0.00 in0.0 mm
03:45 AM 59.5°F15.3°C 51.6°F10.9°C 75% 3.0 mph ESE4.8 kmh ESE 18.0 mph29.0 kmh 29.64 in1003.7 mb 0.00 in0.0 mm 0.00 in0.0 mm 0.00 in0.0 mm
03:50 AM 59.4°F15.2°C 51.5°F10.8°C 75% 7.0 mph E11.3 kmh E 18.0 mph29.0 kmh 29.64 in1003.7 mb 0.00 in0.0 mm 0.00 in0.0 mm 0.00 in0.0 mm
03:55 AM 59.5°F15.3°C 51.6°F10.9°C 75% 7.0 mph E11.3 kmh E 14.0 mph22.5 kmh 29.64 in1003.7 mb 0.00 in0.0 mm 0.00 in0.0 mm 0.00 in0.0 mm
04:00 AM 59.4°F15.2°C 51.5°F10.8°C 75% 9.0 mph ESE14.5 kmh ESE 14.0 mph22.5 kmh 29.64 in1003.7 mb 0.00 in0.0 mm 0.00 in0.0 mm 0.00 in0.0 mm
04:05 AM 59.3°F15.2°C 51.4°F10.8°C 75% 4.0 mph E6.4 kmh E 19.0 mph30.6 kmh 29.65 in1004.1 mb 0.00 in0.0 mm 0.00 in0.0 mm 0.00 in0.0 mm
04:10 AM 59.2°F15.1°C 51.7°F10.9°C 76% 11.0 mph E17.7 kmh E 12.0 mph19.3 kmh 29.64 in1003.7 mb 0.00 in0.0 mm 0.00 in0.0 mm 0.00 in0.0 mm
04:15 AM 59.2°F15.1°C 51.7°F10.9°C 76% 16.0 mph E25.7 kmh E 16.0 mph25.7 kmh 29.64 in1003.7 mb 0.00 in0.0 mm 0.00 in0.0 mm 0.00 in0.0 mm
04:20 AM 59.2°F15.1°C 51.7°F10.9°C 76% 7.0 mph E11.3 kmh E 16.0 mph25.7 kmh 29.64 in1003.7 mb 0.00 in0.0 mm 0.00 in0.0 mm 0.00 in0.0 mm
04:25 AM 59.1°F15.1°C 51.6°F10.9°C 76% 11.0 mph E17.7 kmh E 12.0 mph19.3 kmh 29.64 in1003.7 mb 0.00 in0.0 mm 0.00 in0.0 mm 0.00 in0.0 mm
04:30 AM 59.1°F15.1°C 51.6°F10.9°C 76% 6.0 mph E9.7 kmh E 15.0 mph24.1 kmh 29.64 in1003.7 mb 0.00 in0.0 mm 0.00 in0.0 mm 0.00 in0.0 mm
04:35 AM 59.1°F15.1°C 51.6°F10.9°C 76% 4.0 mph ESE6.4 kmh ESE 15.0 mph24.1 kmh 29.64 in1003.7 mb 0.00 in0.0 mm 0.00 in0.0 mm 0.00 in0.0 mm
04:40 AM 59.1°F15.1°C 51.6°F10.9°C 76% 13.0 mph ESE20.9 kmh ESE 14.0 mph22.5 kmh 29.64 in1003.7 mb 0.00 in0.0 mm 0.00 in0.0 mm 0.00 in0.0 mm
04:45 AM 59.3°F15.2°C 51.8°F11.0°C 76% 3.0 mph ESE4.8 kmh ESE 18.0 mph29.0 kmh 29.64 in1003.7 mb 0.00 in0.0 mm 0.00 in0.0 mm 0.00 in0.0 mm
04:50 AM 59.2°F15.1°C 51.7°F10.9°C 76% 3.0 mph E4.8 kmh E 18.0 mph29.0 kmh 29.64 in1003.7 mb 0.00 in0.0 mm 0.00 in0.0 mm 0.00 in0.0 mm
04:55 AM 59.3°F15.2°C 51.8°F11.0°C 76% 7.0 mph E11.3 kmh E 10.0 mph16.1 kmh 29.64 in1003.7 mb 0.00 in0.0 mm 0.00 in0.0 mm 0.00 in0.0 mm
05:00 AM 59.1°F15.1°C 51.6°F10.9°C 76% 2.0 mph E3.2 kmh E 12.0 mph19.3 kmh 29.65 in1004.1 mb 0.00 in0.0 mm 0.00 in0.0 mm 0.00 in0.0 mm
05:05 AM 59.1°F15.1°C 51.9°F11.1°C 77% 3.0 mph ESE4.8 kmh ESE 12.0 mph19.3 kmh 29.65 in1004.1 mb 0.00 in0.0 mm 0.00 in0.0 mm 0.00 in0.0 mm
05:10 AM 59.1°F15.1°C 51.9°F11.1°C 77% 6.0 mph E9.7 kmh E 11.0 mph17.7 kmh 29.65 in1004.1 mb 0.00 in0.0 mm 0.00 in0.0 mm 0.00 in0.0 mm
05:16 AM 59.1°F15.1°C 51.6°F10.9°C 76% 8.0 mph E12.9 kmh E 11.0 mph17.7 kmh 29.64 in1003.7 mb 0.00 in0.0 mm 0.00 in0.0 mm 0.00 in0.0 mm
05:21 AM 59.0°F15.0°C 51.8°F11.0°C 77% 2.0 mph ESE3.2 kmh ESE 11.0 mph17.7 kmh 29.65 in1004.1 mb 0.00 in0.0 mm 0.00 in0.0 mm 0.00 in0.0 mm
05:25 AM 58.8°F14.9°C 51.6°F10.9°C 77% 2.0 mph E3.2 kmh E 4.0 mph6.4 kmh 29.65 in1004.1 mb 0.00 in0.0 mm 0.00 in0.0 mm 0.00 in0.0 mm
05:30 AM 58.7°F14.8°C 51.5°F10.8°C 77% 13.0 mph E20.9 kmh E 13.0 mph20.9 kmh 29.65 in1004.1 mb 0.00 in0.0 mm 0.00 in0.0 mm 0.00 in0.0 mm
05:35 AM 59.0°F15.0°C 51.8°F11.0°C 77% 2.0 mph SE3.2 kmh SE 14.0 mph22.5 kmh 29.65 in1004.1 mb 0.00 in0.0 mm 0.00 in0.0 mm 0.00 in0.0 mm
05:40 AM 59.3°F15.2°C 52.1°F11.2°C 77% 3.0 mph SE4.8 kmh SE 8.0 mph12.9 kmh 29.65 in1004.1 mb 0.00 in0.0 mm 0.00 in0.0 mm 0.00 in0.0 mm
05:45 AM 59.6°F15.3°C 52.0°F11.1°C 76% 4.0 mph SE6.4 kmh SE 12.0 mph19.3 kmh 29.65 in1004.1 mb 0.00 in0.0 mm 0.00 in0.0 mm 0.00 in0.0 mm
05:50 AM 59.7°F15.4°C 52.1°F11.2°C 76% 3.0 mph ESE4.8 kmh ESE 12.0 mph19.3 kmh 29.65 in1004.1 mb 0.00 in0.0 mm 0.00 in0.0 mm 0.00 in0.0 mm
05:55 AM 59.9°F15.5°C 52.0°F11.1°C 75% 5.0 mph ESE8.0 kmh ESE 11.0 mph17.7 kmh 29.65 in1004.1 mb 0.00 in0.0 mm 0.00 in0.0 mm 0.00 in0.0 mm
06:00 AM 60.1°F15.6°C 52.2°F11.2°C 75% 4.0 mph SE6.4 kmh SE 13.0 mph20.9 kmh 29.65 in1004.1 mb 0.00 in0.0 mm 0.00 in0.0 mm 0.00 in0.0 mm
06:05 AM 60.1°F15.6°C 52.2°F11.2°C 75% 4.0 mph SE6.4 kmh SE 13.0 mph20.9 kmh 29.65 in1004.1 mb 0.00 in0.0 mm 0.00 in0.0 mm 0.00 in0.0 mm
06:10 AM 60.3°F15.7°C 52.4°F11.3°C 75% 9.0 mph SE14.5 kmh SE 12.0 mph19.3 kmh 29.65 in1004.1 mb 0.00 in0.0 mm 0.00 in0.0 mm 0.00 in0.0 mm
06:15 AM 60.5°F15.8°C 52.2°F11.2°C 74% 4.0 mph SSE6.4 kmh SSE 12.0 mph19.3 kmh 29.65 in1004.1 mb 0.00 in0.0 mm 0.00 in0.0 mm 0.00 in0.0 mm
06:20 AM 60.8°F16.0°C 52.5°F11.4°C 74% 3.0 mph SSE4.8 kmh SSE 12.0 mph19.3 kmh 29.66 in1004.4 mb 0.00 in0.0 mm 0.00 in0.0 mm 0.00 in0.0 mm
06:25 AM 61.0°F16.1°C 52.7°F11.5°C 74% 2.0 mph SE3.2 kmh SE 9.0 mph14.5 kmh 29.65 in1004.1 mb 0.00 in0.0 mm 0.00 in0.0 mm 0.00 in0.0 mm
06:30 AM 61.1°F16.2°C 52.4°F11.3°C 73% 5.0 mph SSE8.0 kmh SSE 14.0 mph22.5 kmh 29.66 in1004.4 mb 0.00 in0.0 mm 0.00 in0.0 mm 0.00 in0.0 mm
06:35 AM 61.2°F16.2°C 52.5°F11.4°C 73% 4.0 mph SE6.4 kmh SE 14.0 mph22.5 kmh 29.65 in1004.1 mb 0.00 in0.0 mm 0.00 in0.0 mm 0.00 in0.0 mm
06:40 AM 61.2°F16.2°C 52.5°F11.4°C 73% 4.0 mph SE6.4 kmh SE 10.0 mph16.1 kmh 29.66 in1004.4 mb 0.00 in0.0 mm 0.00 in0.0 mm 0.00 in0.0 mm
06:45 AM 61.3°F16.3°C 52.6°F11.4°C 73% 8.0 mph SSE12.9 kmh SSE 12.0 mph19.3 kmh 29.66 in1004.4 mb 0.00 in0.0 mm 0.00 in0.0 mm 0.00 in0.0 mm
06:50 AM 61.7°F16.5°C 53.0°F11.7°C 73% 9.0 mph SSE14.5 kmh SSE 12.0 mph19.3 kmh 29.66 in1004.4 mb 0.00 in0.0 mm 0.00 in0.0 mm 0.00 in0.0 mm
06:55 AM 62.2°F16.8°C 53.1°F11.7°C 72% 2.0 mph SE3.2 kmh SE 9.0 mph14.5 kmh 29.66 in1004.4 mb 0.00 in0.0 mm 0.00 in0.0 mm 0.00 in0.0 mm
07:00 AM 62.7°F17.1°C 53.2°F11.8°C 71% 9.0 mph SE14.5 kmh SE 13.0 mph20.9 kmh 29.66 in1004.4 mb 0.00 in0.0 mm 0.00 in0.0 mm 0.00 in0.0 mm
07:05 AM 62.8°F17.1°C 53.3°F11.8°C 71% 9.0 mph SE14.5 kmh SE 15.0 mph24.1 kmh 29.66 in1004.4 mb 0.00 in0.0 mm 0.00 in0.0 mm 0.00 in0.0 mm
07:10 AM 62.7°F17.1°C 53.6°F12.0°C 72% 12.0 mph SSE19.3 kmh SSE 14.0 mph22.5 kmh 29.66 in1004.4 mb 0.00 in0.0 mm 0.00 in0.0 mm 0.00 in0.0 mm
07:15 AM 62.5°F16.9°C 53.7°F12.1°C 73% 5.0 mph SE8.0 kmh SE 17.0 mph27.4 kmh 29.66 in1004.4 mb 0.00 in0.0 mm 0.00 in0.0 mm 0.00 in0.0 mm
07:20 AM 62.5°F16.9°C 53.7°F12.1°C 73% 4.0 mph SSE6.4 kmh SSE 17.0 mph27.4 kmh 29.66 in1004.4 mb 0.00 in0.0 mm 0.00 in0.0 mm 0.00 in0.0 mm
07:25 AM 62.4°F16.9°C 53.6°F12.0°C 73% 6.0 mph SSE9.7 kmh SSE 7.0 mph11.3 kmh 29.66 in1004.4 mb 0.00 in0.0 mm 0.00 in0.0 mm 0.00 in0.0 mm
07:30 AM 62.5°F16.9°C 53.7°F12.1°C 73% 2.0 mph SSE3.2 kmh SSE 19.0 mph30.6 kmh 29.65 in1004.1 mb 0.00 in0.0 mm 0.00 in0.0 mm 0.00 in0.0 mm
07:35 AM 62.4°F16.9°C 53.6°F12.0°C 73% 5.0 mph SSE8.0 kmh SSE 19.0 mph30.6 kmh 29.65 in1004.1 mb 0.00 in0.0 mm 0.00 in0.0 mm 0.00 in0.0 mm
07:40 AM 62.5°F16.9°C 53.7°F12.1°C 73% 15.0 mph SSE24.1 kmh SSE 16.0 mph25.7 kmh 29.65 in1004.1 mb 0.00 in0.0 mm 0.00 in0.0 mm 0.00 in0.0 mm
07:45 AM 62.8°F17.1°C 53.7°F12.1°C 72% 3.0 mph SSE4.8 kmh SSE 18.0 mph29.0 kmh 29.65 in1004.1 mb 0.00 in0.0 mm 0.00 in0.0 mm 0.00 in0.0 mm
07:50 AM 62.7°F17.1°C 53.6°F12.0°C 72% 10.0 mph S16.1 kmh S 18.0 mph29.0 kmh 29.65 in1004.1 mb 0.00 in0.0 mm 0.00 in0.0 mm 0.00 in0.0 mm
07:55 AM 62.5°F16.9°C 53.4°F11.9°C 72% 8.0 mph S12.9 kmh S 9.0 mph14.5 kmh 29.65 in1004.1 mb 0.00 in0.0 mm 0.00 in0.0 mm 0.00 in0.0 mm
08:00 AM 62.6°F17.0°C 53.5°F11.9°C 72% 12.0 mph SSE19.3 kmh SSE 12.0 mph19.3 kmh 29.64 in1003.7 mb 0.00 in0.0 mm 0.00 in0.0 mm 0.00 in0.0 mm
08:05 AM 62.6°F17.0°C 53.8°F12.1°C 73% 5.0 mph SE8.0 kmh SE 17.0 mph27.4 kmh 29.65 in1004.1 mb 0.00 in0.0 mm 0.00 in0.0 mm 0.00 in0.0 mm
08:10 AM 62.5°F16.9°C 53.7°F12.1°C 73% 6.0 mph SSE9.7 kmh SSE 13.0 mph20.9 kmh 29.66 in1004.4 mb 0.00 in0.0 mm 0.00 in0.0 mm 0.00 in0.0 mm
08:15 AM 62.5°F16.9°C 53.7°F12.1°C 73% 12.0 mph SE19.3 kmh SE 17.0 mph27.4 kmh 29.66 in1004.4 mb 0.00 in0.0 mm 0.00 in0.0 mm 0.00 in0.0 mm
08:20 AM 62.8°F17.1°C 54.0°F12.2°C 73% 11.0 mph SE17.7 kmh SE 17.0 mph27.4 kmh 29.67 in1004.7 mb 0.00 in0.0 mm 0.00 in0.0 mm 0.00 in0.0 mm
08:25 AM 62.8°F17.1°C 54.0°F12.2°C 73% 6.0 mph SE9.7 kmh SE 15.0 mph24.1 kmh 29.66 in1004.4 mb 0.00 in0.0 mm 0.00 in0.0 mm 0.00 in0.0 mm
08:30 AM 62.8°F17.1°C 54.0°F12.2°C 73% 3.0 mph SE4.8 kmh SE 19.0 mph30.6 kmh 29.65 in1004.1 mb 0.00 in0.0 mm 0.00 in0.0 mm 0.00 in0.0 mm
08:35 AM 62.7°F17.1°C 53.9°F12.2°C 73% 4.0 mph SSE6.4 kmh SSE 19.0 mph30.6 kmh 29.66 in1004.4 mb 0.00 in0.0 mm 0.00 in0.0 mm 0.00 in0.0 mm
08:40 AM 62.6°F17.0°C 53.8°F12.1°C 73% 10.0 mph SSE16.1 kmh SSE 12.0 mph19.3 kmh 29.65 in1004.1 mb 0.00 in0.0 mm 0.00 in0.0 mm 0.00 in0.0 mm
08:45 AM 62.5°F16.9°C 54.1°F12.3°C 74% 3.0 mph SE4.8 kmh SE 12.0 mph19.3 kmh 29.66 in1004.4 mb 0.00 in0.0 mm 0.00 in0.0 mm 0.00 in0.0 mm
08:50 AM 62.4°F16.9°C 54.4°F12.4°C 75% 6.0 mph SSE9.7 kmh SSE 12.0 mph19.3 kmh 29.66 in1004.4 mb 0.00 in0.0 mm 0.00 in0.0 mm 0.00 in0.0 mm
08:55 AM 62.6°F17.0°C 54.2°F12.3°C 74% 4.0 mph S6.4 kmh S 9.0 mph14.5 kmh 29.66 in1004.4 mb 0.00 in0.0 mm 0.00 in0.0 mm 0.00 in0.0 mm
09:00 AM 62.7°F17.1°C 53.9°F12.2°C 73% 4.0 mph SSE6.4 kmh SSE 14.0 mph22.5 kmh 29.66 in1004.4 mb 0.00 in0.0 mm 0.00 in0.0 mm 0.00 in0.0 mm
09:05 AM 62.6°F17.0°C 53.8°F12.1°C 73% 10.0 mph S16.1 kmh S 14.0 mph22.5 kmh 29.67 in1004.7 mb 0.00 in0.0 mm 0.00 in0.0 mm 0.00 in0.0 mm
09:10 AM 62.9°F17.2°C 54.1°F12.3°C 73% 7.0 mph S11.3 kmh S 7.0 mph11.3 kmh 29.66 in1004.4 mb 0.00 in0.0 mm 0.00 in0.0 mm 0.00 in0.0 mm
09:15 AM 62.8°F17.1°C 54.0°F12.2°C 73% 12.0 mph SSE19.3 kmh SSE 14.0 mph22.5 kmh 29.67 in1004.7 mb 0.00 in0.0 mm 0.00 in0.0 mm 0.00 in0.0 mm
09:20 AM 62.8°F17.1°C 54.0°F12.2°C 73% 4.0 mph SE6.4 kmh SE 16.0 mph25.7 kmh 29.67 in1004.7 mb 0.00 in0.0 mm 0.00 in0.0 mm 0.00 in0.0 mm
09:25 AM 62.8°F17.1°C 54.0°F12.2°C 73% 7.0 mph S11.3 kmh S 9.0 mph14.5 kmh 29.67 in1004.7 mb 0.00 in0.0 mm 0.00 in0.0 mm 0.00 in0.0 mm
09:30 AM 62.8°F17.1°C 54.0°F12.2°C 73% 8.0 mph SSE12.9 kmh SSE 14.0 mph22.5 kmh 29.67 in1004.7 mb 0.00 in0.0 mm 0.00 in0.0 mm 0.00 in0.0 mm
09:35 AM 62.7°F17.1°C 53.9°F12.2°C 73% 4.0 mph SSE6.4 kmh SSE 14.0 mph22.5 kmh 29.67 in1004.7 mb 0.00 in0.0 mm 0.00 in0.0 mm 0.00 in0.0 mm
09:40 AM 62.7°F17.1°C 53.9°F12.2°C 73% 10.0 mph SE16.1 kmh SE 12.0 mph19.3 kmh 29.67 in1004.7 mb 0.00 in0.0 mm 0.00 in0.0 mm 0.00 in0.0 mm
09:45 AM 62.7°F17.1°C 53.9°F12.2°C 73% 5.0 mph SSE8.0 kmh SSE 14.0 mph22.5 kmh 29.67 in1004.7 mb 0.00 in0.0 mm 0.00 in0.0 mm 0.00 in0.0 mm
09:50 AM 62.6°F17.0°C 53.8°F12.1°C 73% 7.0 mph S11.3 kmh S 14.0 mph22.5 kmh 29.67 in1004.7 mb 0.00 in0.0 mm 0.00 in0.0 mm 0.00 in0.0 mm
09:55 AM 62.6°F17.0°C 53.8°F12.1°C 73% 6.0 mph S9.7 kmh S 9.0 mph14.5 kmh 29.67 in1004.7 mb 0.00 in0.0 mm 0.00 in0.0 mm 0.00 in0.0 mm
10:00 AM 62.6°F17.0°C 53.8°F12.1°C 73% 11.0 mph SSE17.7 kmh SSE 12.0 mph19.3 kmh 29.67 in1004.7 mb 0.00 in0.0 mm 0.00 in0.0 mm 0.00 in0.0 mm
10:05 AM 62.7°F17.1°C 53.9°F12.2°C 73% 9.0 mph SSE14.5 kmh SSE 14.0 mph22.5 kmh 29.68 in1005.1 mb 0.00 in0.0 mm 0.00 in0.0 mm 0.00 in0.0 mm
10:10 AM 62.5°F16.9°C 53.7°F12.1°C 73% 6.0 mph S9.7 kmh S 8.0 mph12.9 kmh 29.69 in1005.4 mb 0.00 in0.0 mm 0.00 in0.0 mm 0.00 in0.0 mm
10:15 AM 62.6°F17.0°C 53.8°F12.1°C 73% 7.0 mph SW11.3 kmh SW 14.0 mph22.5 kmh 29.68 in1005.1 mb 0.00 in0.0 mm 0.00 in0.0 mm 0.00 in0.0 mm
10:20 AM 61.3°F16.3°C 49.9°F9.9°C 66% 15.0 mph WSW24.1 kmh WSW 24.0 mph38.6 kmh 29.69 in1005.4 mb 0.00 in0.0 mm 0.00 in0.0 mm 0.00 in0.0 mm
10:25 AM 59.2°F15.1°C 47.9°F8.8°C 66% 13.0 mph WSW20.9 kmh WSW 18.0 mph29.0 kmh 29.70 in1005.8 mb 0.00 in0.0 mm 0.00 in0.0 mm 0.00 in0.0 mm
10:30 AM 57.8°F14.3°C 46.9°F8.3°C 67% 14.0 mph WSW22.5 kmh WSW 24.0 mph38.6 kmh 29.71 in1006.1 mb 0.00 in0.0 mm 0.00 in0.0 mm 0.00 in0.0 mm
10:35 AM 57.0°F13.9°C 46.6°F8.1°C 68% 18.0 mph SW29.0 kmh SW 24.0 mph38.6 kmh 29.72 in1006.4 mb 0.00 in0.0 mm 0.00 in0.0 mm 0.00 in0.0 mm
10:40 AM 56.5°F13.6°C 46.5°F8.1°C 69% 12.0 mph SW19.3 kmh SW 21.0 mph33.8 kmh 29.72 in1006.4 mb 0.00 in0.0 mm 0.00 in0.0 mm 0.00 in0.0 mm
10:45 AM 56.2°F13.4°C 46.6°F8.1°C 70% 8.0 mph WSW12.9 kmh WSW 24.0 mph38.6 kmh 29.73 in1006.8 mb 0.00 in0.0 mm 0.00 in0.0 mm 0.00 in0.0 mm
10:50 AM 55.9°F13.3°C 46.3°F7.9°C 70% 13.0 mph WSW20.9 kmh WSW 24.0 mph38.6 kmh 29.73 in1006.8 mb 0.00 in0.0 mm 0.00 in0.0 mm 0.00 in0.0 mm
10:55 AM 55.5°F13.1°C 46.3°F7.9°C 71% 13.0 mph WSW20.9 kmh WSW 14.0 mph22.5 kmh 29.73 in1006.8 mb 0.00 in0.0 mm 0.00 in0.0 mm 0.00 in0.0 mm
11:00 AM 55.0°F12.8°C 46.2°F7.9°C 72% 10.0 mph WSW16.1 kmh WSW 21.0 mph33.8 kmh 29.73 in1006.8 mb 0.00 in0.0 mm 0.00 in0.0 mm 0.00 in0.0 mm
11:05 AM 54.4°F12.4°C 46.3°F7.9°C 74% 10.0 mph WSW16.1 kmh WSW 21.0 mph33.8 kmh 29.73 in1006.8 mb 0.00 in0.0 mm 0.00 in0.0 mm 0.00 in0.0 mm
11:10 AM 54.4°F12.4°C 45.2°F7.3°C 71% 8.0 mph W12.9 kmh W 13.0 mph20.9 kmh 29.73 in1006.8 mb 0.00 in0.0 mm 0.00 in0.0 mm 0.00 in0.0 mm
11:15 AM 54.4°F12.4°C 44.5°F6.9°C 69% 17.0 mph WSW27.4 kmh WSW 19.0 mph30.6 kmh 29.73 in1006.8 mb 0.00 in0.0 mm 0.00 in0.0 mm 0.00 in0.0 mm
11:20 AM 54.3°F12.4°C 43.6°F6.4°C 67% 12.0 mph WSW19.3 kmh WSW 21.0 mph33.8 kmh 29.74 in1007.1 mb 0.00 in0.0 mm 0.00 in0.0 mm 0.00 in0.0 mm
11:25 AM 54.1°F12.3°C 42.6°F5.9°C 65% 7.0 mph SW11.3 kmh SW 16.0 mph25.7 kmh 29.74 in1007.1 mb 0.00 in0.0 mm 0.00 in0.0 mm 0.00 in0.0 mm
11:30 AM 53.8°F12.1°C 42.7°F5.9°C 66% 15.0 mph SW24.1 kmh SW 20.0 mph32.2 kmh 29.74 in1007.1 mb 0.00 in0.0 mm 0.00 in0.0 mm 0.00 in0.0 mm
11:35 AM 53.4°F11.9°C 42.7°F5.9°C 67% 15.0 mph SW24.1 kmh SW 22.0 mph35.4 kmh 29.74 in1007.1 mb 0.00 in0.0 mm 0.00 in0.0 mm 0.00 in0.0 mm
11:40 AM 52.9°F11.6°C 42.6°F5.9°C 68% 15.0 mph WSW24.1 kmh WSW 15.0 mph24.1 kmh 29.75 in1007.5 mb 0.00 in0.0 mm 0.00 in0.0 mm 0.00 in0.0 mm
11:45 AM 52.4°F11.3°C 41.8°F5.4°C 67% 10.0 mph SW16.1 kmh SW 21.0 mph33.8 kmh 29.75 in1007.5 mb 0.00 in0.0 mm 0.00 in0.0 mm 0.00 in0.0 mm
11:50 AM 52.1°F11.2°C 41.9°F5.5°C 68% 8.0 mph SW12.9 kmh SW 22.0 mph35.4 kmh 29.75 in1007.5 mb 0.00 in0.0 mm 0.00 in0.0 mm 0.00 in0.0 mm
11:55 AM 51.8°F11.0°C 41.6°F5.3°C 68% 15.0 mph WSW24.1 kmh WSW 17.0 mph27.4 kmh 29.75 in1007.5 mb 0.00 in0.0 mm 0.00 in0.0 mm 0.00 in0.0 mm
12:00 PM 51.2°F10.7°C 42.1°F5.6°C 71% 10.0 mph WSW16.1 kmh WSW 23.0 mph37.0 kmh 29.75 in1007.5 mb 0.00 in0.0 mm 0.00 in0.0 mm 0.00 in0.0 mm
12:05 PM 50.7°F10.4°C 42.0°F5.6°C 72% 8.0 mph SW12.9 kmh SW 23.0 mph37.0 kmh 29.75 in1007.5 mb 0.00 in0.0 mm 0.00 in0.0 mm 0.00 in0.0 mm
12:10 PM 50.4°F10.2°C 42.4°F5.8°C 74% 11.0 mph WSW17.7 kmh WSW 19.0 mph30.6 kmh 29.76 in1007.8 mb 0.00 in0.0 mm 0.00 in0.0 mm 0.00 in0.0 mm
12:15 PM 50.0°F10.0°C 42.7°F5.9°C 76% 5.0 mph SW8.0 kmh SW 19.0 mph30.6 kmh 29.76 in1007.8 mb 0.00 in0.0 mm 0.00 in0.0 mm 0.00 in0.0 mm
12:20 PM 49.9°F9.9°C 43.0°F6.1°C 77% 7.0 mph SW11.3 kmh SW 24.0 mph38.6 kmh 29.76 in1007.8 mb 0.00 in0.0 mm 0.00 in0.0 mm 0.00 in0.0 mm
12:25 PM 49.8°F9.9°C 42.9°F6.1°C 77% 14.0 mph W22.5 kmh W 16.0 mph25.7 kmh 29.76 in1007.8 mb 0.00 in0.0 mm 0.00 in0.0 mm 0.00 in0.0 mm
12:30 PM 49.6°F9.8°C 42.0°F5.6°C 75% 11.0 mph SW17.7 kmh SW 18.0 mph29.0 kmh 29.77 in1008.1 mb 0.00 in0.0 mm 0.00 in0.0 mm 0.00 in0.0 mm
12:35 PM 49.7°F9.8°C 41.8°F5.4°C 74% 16.0 mph WSW25.7 kmh WSW 18.0 mph29.0 kmh 29.77 in1008.1 mb 0.00 in0.0 mm 0.00 in0.0 mm 0.00 in0.0 mm
12:40 PM 49.8°F9.9°C 41.9°F5.5°C 74% 11.0 mph WSW17.7 kmh WSW 17.0 mph27.4 kmh 29.77 in1008.1 mb 0.00 in0.0 mm 0.00 in0.0 mm 0.00 in0.0 mm
12:45 PM 49.9°F9.9°C 41.6°F5.3°C 73% 10.0 mph WSW16.1 kmh WSW 17.0 mph27.4 kmh 29.76 in1007.8 mb 0.00 in0.0 mm 0.00 in0.0 mm 0.00 in0.0 mm
12:50 PM 50.2°F10.1°C 41.5°F5.3°C 72% 8.0 mph WSW12.9 kmh WSW 18.0 mph29.0 kmh 29.76 in1007.8 mb 0.00 in0.0 mm 0.00 in0.0 mm 0.00 in0.0 mm
12:55 PM 50.3°F10.2°C 40.5°F4.7°C 69% 9.0 mph WSW14.5 kmh WSW 11.0 mph17.7 kmh 29.76 in1007.8 mb 0.00 in0.0 mm 0.00 in0.0 mm 0.00 in0.0 mm
01:00 PM 50.5°F10.3°C 40.7°F4.8°C 69% 9.0 mph WSW14.5 kmh WSW 14.0 mph22.5 kmh 29.77 in1008.1 mb 0.00 in0.0 mm 0.00 in0.0 mm 0.00 in0.0 mm
01:05 PM 50.9°F10.5°C 40.7°F4.8°C 68% 9.0 mph WSW14.5 kmh WSW 14.0 mph22.5 kmh 29.76 in1007.8 mb 0.00 in0.0 mm 0.00 in0.0 mm 0.00 in0.0 mm
01:10 PM 51.4°F10.8°C 40.8°F4.9°C 67% 4.0 mph SW6.4 kmh SW 11.0 mph17.7 kmh 29.76 in1007.8 mb 0.00 in0.0 mm 0.00 in0.0 mm 0.00 in0.0 mm
01:15 PM 51.7°F10.9°C 40.7°F4.8°C 66% 12.0 mph WSW19.3 kmh WSW 15.0 mph24.1 kmh 29.75 in1007.5 mb 0.00 in0.0 mm 0.00 in0.0 mm 0.00 in0.0 mm
01:20 PM 51.8°F11.0°C 40.8°F4.9°C 66% 10.0 mph WSW16.1 kmh WSW 16.0 mph25.7 kmh 29.76 in1007.8 mb 0.00 in0.0 mm 0.00 in0.0 mm 0.00 in0.0 mm
01:25 PM 52.2°F11.2°C 40.8°F4.9°C 65% 9.0 mph WSW14.5 kmh WSW 12.0 mph19.3 kmh 29.75 in1007.5 mb 0.00 in0.0 mm 0.00 in0.0 mm 0.00 in0.0 mm
01:30 PM 52.7°F11.5°C 40.9°F4.9°C 64% 12.0 mph WSW19.3 kmh WSW 14.0 mph22.5 kmh 29.76 in1007.8 mb 0.00 in0.0 mm 0.00 in0.0 mm 0.00 in0.0 mm
01:35 PM 53.2°F11.8°C 41.0°F5.0°C 63% 13.0 mph WSW20.9 kmh WSW 14.0 mph22.5 kmh 29.76 in1007.8 mb 0.00 in0.0 mm 0.00 in0.0 mm 0.00 in0.0 mm
01:40 PM 53.3°F11.8°C 40.6°F4.8°C 62% 9.0 mph WSW14.5 kmh WSW 11.0 mph17.7 kmh 29.76 in1007.8 mb 0.00 in0.0 mm 0.00 in0.0 mm 0.00 in0.0 mm
01:45 PM 53.8°F12.1°C 40.3°F4.6°C 60% 9.0 mph WSW14.5 kmh WSW 15.0 mph24.1 kmh 29.75 in1007.5 mb 0.00 in0.0 mm 0.00 in0.0 mm 0.00 in0.0 mm
01:50 PM 54.0°F12.2°C 40.0°F4.4°C 59% 11.0 mph WSW17.7 kmh WSW 16.0 mph25.7 kmh 29.75 in1007.5 mb 0.00 in0.0 mm 0.00 in0.0 mm 0.00 in0.0 mm
01:55 PM 54.2°F12.3°C 40.2°F4.6°C 59% 7.0 mph WSW11.3 kmh WSW 13.0 mph20.9 kmh 29.75 in1007.5 mb 0.00 in0.0 mm 0.00 in0.0 mm 0.00 in0.0 mm
02:00 PM 55.0°F12.8°C 41.0°F5.0°C 59% 8.0 mph WSW12.9 kmh WSW 13.0 mph20.9 kmh 29.75 in1007.5 mb 0.00 in0.0 mm 0.00 in0.0 mm 0.00 in0.0 mm
02:05 PM 56.6°F13.7°C 40.6°F4.8°C 55% 19.0 mph SW30.6 kmh SW 23.0 mph37.0 kmh 29.75 in1007.5 mb 0.00 in0.0 mm 0.00 in0.0 mm 0.00 in0.0 mm
02:10 PM 57.0°F13.9°C 40.1°F4.5°C 53% 12.0 mph WSW19.3 kmh WSW 23.0 mph37.0 kmh 29.75 in1007.5 mb 0.00 in0.0 mm 0.00 in0.0 mm 0.00 in0.0 mm
02:15 PM 57.2°F14.0°C 39.8°F4.3°C 52% 11.0 mph SW17.7 kmh SW 24.0 mph38.6 kmh 29.75 in1007.5 mb 0.00 in0.0 mm 0.00 in0.0 mm 0.00 in0.0 mm
02:20 PM 57.0°F13.9°C 38.6°F3.7°C 50% 11.0 mph SW17.7 kmh SW 24.0 mph38.6 kmh 29.75 in1007.5 mb 0.00 in0.0 mm 0.00 in0.0 mm 0.00 in0.0 mm
02:25 PM 57.1°F13.9°C 38.7°F3.7°C 50% 16.0 mph SW25.7 kmh SW 19.0 mph30.6 kmh 29.75 in1007.5 mb 0.00 in0.0 mm 0.00 in0.0 mm 0.00 in0.0 mm
02:30 PM 57.1°F13.9°C 38.1°F3.4°C 49% 12.0 mph SW19.3 kmh SW 22.0 mph35.4 kmh 29.75 in1007.5 mb 0.00 in0.0 mm 0.00 in0.0 mm 0.00 in0.0 mm
02:35 PM 57.0°F13.9°C 39.6°F4.2°C 52% 20.0 mph SW32.2 kmh SW 26.0 mph41.8 kmh 29.75 in1007.5 mb 0.00 in0.0 mm 0.00 in0.0 mm 0.00 in0.0 mm
02:40 PM 57.4°F14.1°C 39.4°F4.1°C 51% 9.0 mph SW14.5 kmh SW 23.0 mph37.0 kmh 29.76 in1007.8 mb 0.00 in0.0 mm 0.00 in0.0 mm 0.00 in0.0 mm
02:45 PM 57.2°F14.0°C 38.2°F3.4°C 49% 14.0 mph SW22.5 kmh SW 23.0 mph37.0 kmh 29.76 in1007.8 mb 0.00 in0.0 mm 0.00 in0.0 mm 0.00 in0.0 mm
02:50 PM 57.1°F13.9°C 37.6°F3.1°C 48% 10.0 mph SW16.1 kmh SW 23.0 mph37.0 kmh 29.76 in1007.8 mb 0.00 in0.0 mm 0.00 in0.0 mm 0.00 in0.0 mm
02:55 PM 57.2°F14.0°C 37.7°F3.2°C 48% 18.0 mph SW29.0 kmh SW 18.0 mph29.0 kmh 29.76 in1007.8 mb 0.00 in0.0 mm 0.00 in0.0 mm 0.00 in0.0 mm
03:00 PM 56.6°F13.7°C 38.2°F3.4°C 50% 8.0 mph WSW12.9 kmh WSW 23.0 mph37.0 kmh 29.76 in1007.8 mb 0.00 in0.0 mm 0.00 in0.0 mm 0.00 in0.0 mm
03:05 PM 55.9°F13.3°C 36.5°F2.5°C 48% 12.0 mph SSW19.3 kmh SSW 26.0 mph41.8 kmh 29.76 in1007.8 mb 0.00 in0.0 mm 0.00 in0.0 mm 0.00 in0.0 mm
03:10 PM 55.9°F13.3°C 36.5°F2.5°C 48% 17.0 mph WSW27.4 kmh WSW 28.0 mph45.1 kmh 29.77 in1008.1 mb 0.00 in0.0 mm 0.00 in0.0 mm 0.00 in0.0 mm
03:15 PM 55.7°F13.2°C 36.9°F2.7°C 49% 10.0 mph WSW16.1 kmh WSW 28.0 mph45.1 kmh 29.77 in1008.1 mb 0.00 in0.0 mm 0.00 in0.0 mm 0.00 in0.0 mm
03:20 PM 56.1°F13.4°C 36.7°F2.6°C 48% 12.0 mph WSW19.3 kmh WSW 28.0 mph45.1 kmh 29.77 in1008.1 mb 0.00 in0.0 mm 0.00 in0.0 mm 0.00 in0.0 mm
03:25 PM 56.3°F13.5°C 36.4°F2.4°C 47% 13.0 mph SW20.9 kmh SW 19.0 mph30.6 kmh 29.77 in1008.1 mb 0.00 in0.0 mm 0.00 in0.0 mm 0.00 in0.0 mm
03:30 PM 56.1°F13.4°C 36.2°F2.3°C 47% 9.0 mph SW14.5 kmh SW 19.0 mph30.6 kmh 29.77 in1008.1 mb 0.00 in0.0 mm 0.00 in0.0 mm 0.00 in0.0 mm
03:35 PM 55.8°F13.2°C 36.4°F2.4°C 48% 16.0 mph SW25.7 kmh SW 24.0 mph38.6 kmh 29.77 in1008.1 mb 0.00 in0.0 mm 0.00 in0.0 mm 0.00 in0.0 mm
03:40 PM 55.4°F13.0°C 36.1°F2.3°C 48% 20.0 mph SW32.2 kmh SW 21.0 mph33.8 kmh 29.78 in1008.5 mb 0.00 in0.0 mm 0.00 in0.0 mm 0.00 in0.0 mm
03:45 PM 55.2°F12.9°C 35.3°F1.8°C 47% 21.0 mph SW33.8 kmh SW 23.0 mph37.0 kmh 29.78 in1008.5 mb 0.00 in0.0 mm 0.00 in0.0 mm 0.00 in0.0 mm
03:50 PM 55.1°F12.8°C 35.8°F2.1°C 48% 15.0 mph SW24.1 kmh SW 23.0 mph37.0 kmh 29.78 in1008.5 mb 0.00 in0.0 mm 0.00 in0.0 mm 0.00 in0.0 mm
03:55 PM 55.3°F12.9°C 35.4°F1.9°C 47% 15.0 mph SW24.1 kmh SW 23.0 mph37.0 kmh 29.78 in1008.5 mb 0.00 in0.0 mm 0.00 in0.0 mm 0.00 in0.0 mm
04:00 PM 54.8°F12.7°C 34.4°F1.3°C 46% 12.0 mph SW19.3 kmh SW 23.0 mph37.0 kmh 29.79 in1008.8 mb 0.00 in0.0 mm 0.00 in0.0 mm 0.00 in0.0 mm
04:05 PM 54.3°F12.4°C 34.5°F1.4°C 47% 15.0 mph SW24.1 kmh SW 23.0 mph37.0 kmh 29.79 in1008.8 mb 0.00 in0.0 mm 0.00 in0.0 mm 0.00 in0.0 mm
04:10 PM 54.0°F12.2°C 35.8°F2.1°C 50% 11.0 mph SW17.7 kmh SW 17.0 mph27.4 kmh 29.79 in1008.8 mb 0.00 in0.0 mm 0.00 in0.0 mm 0.00 in0.0 mm
04:15 PM 53.7°F12.1°C 34.5°F1.4°C 48% 11.0 mph SW17.7 kmh SW 28.0 mph45.1 kmh 29.79 in1008.8 mb 0.00 in0.0 mm 0.00 in0.0 mm 0.00 in0.0 mm
04:20 PM 54.1°F12.3°C 34.3°F1.3°C 47% 12.0 mph SSW19.3 kmh SSW 28.0 mph45.1 kmh 29.80 in1009.1 mb 0.00 in0.0 mm 0.00 in0.0 mm 0.00 in0.0 mm
04:25 PM 54.3°F12.4°C 35.1°F1.7°C 48% 16.0 mph SW25.7 kmh SW 24.0 mph38.6 kmh 29.81 in1009.5 mb 0.00 in0.0 mm 0.00 in0.0 mm 0.00 in0.0 mm
04:30 PM 54.1°F12.3°C 34.3°F1.3°C 47% 18.0 mph SW29.0 kmh SW 29.0 mph46.7 kmh 29.81 in1009.5 mb 0.00 in0.0 mm 0.00 in0.0 mm 0.00 in0.0 mm
04:35 PM 54.1°F12.3°C 34.9°F1.6°C 48% 11.0 mph SW17.7 kmh SW 29.0 mph46.7 kmh 29.81 in1009.5 mb 0.00 in0.0 mm 0.00 in0.0 mm 0.00 in0.0 mm
04:40 PM 53.9°F12.2°C 34.2°F1.2°C 47% 12.0 mph SW19.3 kmh SW 19.0 mph30.6 kmh 29.81 in1009.5 mb 0.00 in0.0 mm 0.00 in0.0 mm 0.00 in0.0 mm
04:45 PM 53.7°F12.1°C 34.0°F1.1°C 47% 11.0 mph WSW17.7 kmh WSW 24.0 mph38.6 kmh 29.81 in1009.5 mb 0.00 in0.0 mm 0.00 in0.0 mm 0.00 in0.0 mm
04:50 PM 53.5°F11.9°C 33.8°F1.0°C 47% 9.0 mph SW14.5 kmh SW 29.0 mph46.7 kmh 29.82 in1009.8 mb 0.00 in0.0 mm 0.00 in0.0 mm 0.00 in0.0 mm
04:55 PM 53.1°F11.7°C 31.2°F-0.4°C 43% 13.0 mph SSW20.9 kmh SSW 21.0 mph33.8 kmh 29.82 in1009.8 mb 0.00 in0.0 mm 0.00 in0.0 mm 0.00 in0.0 mm
05:00 PM 52.9°F11.6°C 32.7°F0.4°C 46% 15.0 mph SW24.1 kmh SW 26.0 mph41.8 kmh 29.82 in1009.8 mb 0.00 in0.0 mm 0.00 in0.0 mm 0.00 in0.0 mm
05:05 PM 52.8°F11.6°C 32.1°F0.1°C 45% 8.0 mph SW12.9 kmh SW 26.0 mph41.8 kmh 29.82 in1009.8 mb 0.00 in0.0 mm 0.00 in0.0 mm 0.00 in0.0 mm
05:10 PM 52.6°F11.4°C 33.0°F0.6°C 47% 15.0 mph SW24.1 kmh SW 20.0 mph32.2 kmh 29.82 in1009.8 mb 0.00 in0.0 mm 0.00 in0.0 mm 0.00 in0.0 mm
05:15 PM 52.4°F11.3°C 32.2°F0.1°C 46% 11.0 mph WSW17.7 kmh WSW 21.0 mph33.8 kmh 29.82 in1009.8 mb 0.00 in0.0 mm 0.00 in0.0 mm 0.00 in0.0 mm
05:20 PM 52.3°F11.3°C 33.7°F0.9°C 49% 15.0 mph SW24.1 kmh SW 22.0 mph35.4 kmh 29.83 in1010.2 mb 0.00 in0.0 mm 0.00 in0.0 mm 0.00 in0.0 mm
05:25 PM 52.2°F11.2°C 32.6°F0.3°C 47% 9.0 mph SW14.5 kmh SW 19.0 mph30.6 kmh 29.83 in1010.2 mb 0.00 in0.0 mm 0.00 in0.0 mm 0.00 in0.0 mm
05:30 PM 52.0°F11.1°C 31.9°F-0.1°C 46% 11.0 mph SW17.7 kmh SW 26.0 mph41.8 kmh 29.83 in1010.2 mb 0.00 in0.0 mm 0.00 in0.0 mm 0.00 in0.0 mm
05:35 PM 51.9°F11.1°C 31.8°F-0.1°C 46% 16.0 mph SSW25.7 kmh SSW 28.0 mph45.1 kmh 29.84 in1010.5 mb 0.00 in0.0 mm 0.00 in0.0 mm 0.00 in0.0 mm
05:40 PM 51.7°F10.9°C 30.5°F-0.8°C 44% 12.0 mph SW19.3 kmh SW 20.0 mph32.2 kmh 29.85 in1010.8 mb 0.00 in0.0 mm 0.00 in0.0 mm 0.00 in0.0 mm
05:45 PM 51.5°F10.8°C 30.9°F-0.6°C 45% 11.0 mph SW17.7 kmh SW 22.0 mph35.4 kmh 29.85 in1010.8 mb 0.00 in0.0 mm 0.00 in0.0 mm 0.00 in0.0 mm
05:50 PM 51.4°F10.8°C 31.3°F-0.4°C 46% 17.0 mph SSW27.4 kmh SSW 23.0 mph37.0 kmh 29.85 in1010.8 mb 0.00 in0.0 mm 0.00 in0.0 mm 0.00 in0.0 mm
05:55 PM 51.3°F10.7°C 31.2°F-0.4°C 46% 10.0 mph WSW16.1 kmh WSW 14.0 mph22.5 kmh 29.85 in1010.8 mb 0.00 in0.0 mm 0.00 in0.0 mm 0.00 in0.0 mm
06:00 PM 51.2°F10.7°C 31.2°F-0.4°C 46% 11.0 mph SW17.7 kmh SW 21.0 mph33.8 kmh 29.86 in1011.2 mb 0.00 in0.0 mm 0.00 in0.0 mm 0.00 in0.0 mm
06:05 PM 51.0°F10.6°C 32.0°F0.0°C 48% 14.0 mph SW22.5 kmh SW 21.0 mph33.8 kmh 29.86 in1011.2 mb 0.00 in0.0 mm 0.00 in0.0 mm 0.00 in0.0 mm
06:10 PM 50.9°F10.5°C 30.9°F-0.6°C 46% 7.0 mph WSW11.3 kmh WSW 17.0 mph27.4 kmh 29.86 in1011.2 mb 0.00 in0.0 mm 0.00 in0.0 mm 0.00 in0.0 mm
06:15 PM 50.7°F10.4°C 31.7°F-0.2°C 48% 15.0 mph SW24.1 kmh SW 21.0 mph33.8 kmh 29.86 in1011.2 mb 0.00 in0.0 mm 0.00 in0.0 mm 0.00 in0.0 mm
06:20 PM 50.6°F10.3°C 32.2°F0.1°C 49% 13.0 mph SW20.9 kmh SW 21.0 mph33.8 kmh 29.87 in1011.5 mb 0.00 in0.0 mm 0.00 in0.0 mm 0.00 in0.0 mm
06:25 PM 50.3°F10.2°C 31.4°F-0.3°C 48% 12.0 mph WSW19.3 kmh WSW 17.0 mph27.4 kmh 29.87 in1011.5 mb 0.00 in0.0 mm 0.00 in0.0 mm 0.00 in0.0 mm
06:30 PM 50.1°F10.1°C 30.7°F-0.7°C 47% 14.0 mph SW22.5 kmh SW 25.0 mph40.2 kmh 29.87 in1011.5 mb 0.00 in0.0 mm 0.00 in0.0 mm 0.00 in0.0 mm
06:35 PM 49.9°F9.9°C 31.0°F-0.6°C 48% 10.0 mph WSW16.1 kmh WSW 25.0 mph40.2 kmh 29.88 in1011.9 mb 0.00 in0.0 mm 0.00 in0.0 mm 0.00 in0.0 mm
06:40 PM 49.7°F9.8°C 31.3°F-0.4°C 49% 13.0 mph SW20.9 kmh SW 18.0 mph29.0 kmh 29.88 in1011.9 mb 0.00 in0.0 mm 0.00 in0.0 mm 0.00 in0.0 mm
06:45 PM 49.5°F9.7°C 31.2°F-0.4°C 49% 10.0 mph SSW16.1 kmh SSW 25.0 mph40.2 kmh 29.88 in1011.9 mb 0.00 in0.0 mm 0.00 in0.0 mm 0.00 in0.0 mm
06:50 PM 49.4°F9.7°C 31.1°F-0.5°C 49% 13.0 mph WSW20.9 kmh WSW 26.0 mph41.8 kmh 29.88 in1011.9 mb 0.00 in0.0 mm 0.00 in0.0 mm 0.00 in0.0 mm
06:55 PM 49.4°F9.7°C 31.6°F-0.2°C 50% 8.0 mph WSW12.9 kmh WSW 19.0 mph30.6 kmh 29.89 in1012.2 mb 0.00 in0.0 mm 0.00 in0.0 mm 0.00 in0.0 mm
07:00 PM 49.2°F9.6°C 30.9°F-0.6°C 49% 10.0 mph WSW16.1 kmh WSW 20.0 mph32.2 kmh 29.89 in1012.2 mb 0.00 in0.0 mm 0.00 in0.0 mm 0.00 in0.0 mm
07:05 PM 49.0°F9.4°C 30.2°F-1.0°C 48% 15.0 mph WSW24.1 kmh WSW 26.0 mph41.8 kmh 29.90 in1012.5 mb 0.00 in0.0 mm 0.00 in0.0 mm 0.00 in0.0 mm
07:10 PM 48.9°F9.4°C 30.1°F-1.1°C 48% 18.0 mph SW29.0 kmh SW 18.0 mph29.0 kmh 29.90 in1012.5 mb 0.00 in0.0 mm 0.00 in0.0 mm 0.00 in0.0 mm
07:15 PM 48.8°F9.3°C 30.5°F-0.8°C 49% 17.0 mph SW27.4 kmh SW 18.0 mph29.0 kmh 29.90 in1012.5 mb 0.00 in0.0 mm 0.00 in0.0 mm 0.00 in0.0 mm
07:20 PM 48.6°F9.2°C 30.3°F-0.9°C 49% 12.0 mph SW19.3 kmh SW 21.0 mph33.8 kmh 29.90 in1012.5 mb 0.00 in0.0 mm 0.00 in0.0 mm 0.00 in0.0 mm
07:25 PM 48.5°F9.2°C 30.7°F-0.7°C 50% 7.0 mph SW11.3 kmh SW 12.0 mph19.3 kmh 29.91 in1012.9 mb 0.00 in0.0 mm 0.00 in0.0 mm 0.00 in0.0 mm
07:30 PM 48.3°F9.1°C 29.5°F-1.4°C 48% 10.0 mph WSW16.1 kmh WSW 26.0 mph41.8 kmh 29.91 in1012.9 mb 0.00 in0.0 mm 0.00 in0.0 mm 0.00 in0.0 mm
07:35 PM 48.2°F9.0°C 30.5°F-0.8°C 50% 14.0 mph SW22.5 kmh SW 26.0 mph41.8 kmh 29.92 in1013.2 mb 0.00 in0.0 mm 0.00 in0.0 mm 0.00 in0.0 mm
07:40 PM 48.1°F8.9°C 30.8°F-0.7°C 51% 9.0 mph WSW14.5 kmh WSW 18.0 mph29.0 kmh 29.92 in1013.2 mb 0.00 in0.0 mm 0.00 in0.0 mm 0.00 in0.0 mm
07:45 PM 47.9°F8.8°C 30.7°F-0.7°C 51% 15.0 mph SW24.1 kmh SW 22.0 mph35.4 kmh 29.92 in1013.2 mb 0.00 in0.0 mm 0.00 in0.0 mm 0.00 in0.0 mm
07:50 PM 47.7°F8.7°C 30.5°F-0.8°C 51% 13.0 mph SW20.9 kmh SW 25.0 mph40.2 kmh 29.93 in1013.5 mb 0.00 in0.0 mm 0.00 in0.0 mm 0.00 in0.0 mm
07:55 PM 47.5°F8.6°C 30.3°F-0.9°C 51% 15.0 mph WSW24.1 kmh WSW 18.0 mph29.0 kmh 29.94 in1013.9 mb 0.00 in0.0 mm 0.00 in0.0 mm 0.00 in0.0 mm
08:00 PM 47.3°F8.5°C 29.6°F-1.3°C 50% 18.0 mph WSW29.0 kmh WSW 30.0 mph48.3 kmh 29.94 in1013.9 mb 0.00 in0.0 mm 0.00 in0.0 mm 0.00 in0.0 mm
08:05 PM 47.0°F8.3°C 29.8°F-1.2°C 51% 14.0 mph WSW22.5 kmh WSW 30.0 mph48.3 kmh 29.95 in1014.2 mb 0.00 in0.0 mm 0.00 in0.0 mm 0.00 in0.0 mm
08:10 PM 46.8°F8.2°C 29.2°F-1.6°C 50% 12.0 mph SW19.3 kmh SW 28.0 mph45.1 kmh 29.95 in1014.2 mb 0.00 in0.0 mm 0.00 in0.0 mm 0.00 in0.0 mm
08:15 PM 46.5°F8.1°C 27.4°F-2.6°C 47% 13.0 mph SW20.9 kmh SW 30.0 mph48.3 kmh 29.95 in1014.2 mb 0.00 in0.0 mm 0.00 in0.0 mm 0.00 in0.0 mm
08:20 PM 46.2°F7.9°C 27.6°F-2.4°C 48% 14.0 mph SW22.5 kmh SW 30.0 mph48.3 kmh 29.96 in1014.6 mb 0.00 in0.0 mm 0.00 in0.0 mm 0.00 in0.0 mm
08:25 PM 46.0°F7.8°C 26.9°F-2.8°C 47% 15.0 mph WSW24.1 kmh WSW 16.0 mph25.7 kmh 29.96 in1014.6 mb 0.00 in0.0 mm 0.00 in0.0 mm 0.00 in0.0 mm
08:30 PM 45.9°F7.7°C 28.3°F-2.1°C 50% 9.0 mph WSW14.5 kmh WSW 27.0 mph43.5 kmh 29.97 in1014.9 mb 0.00 in0.0 mm 0.00 in0.0 mm 0.00 in0.0 mm
08:35 PM 45.7°F7.6°C 27.7°F-2.4°C 49% 8.0 mph WSW12.9 kmh WSW 27.0 mph43.5 kmh 29.97 in1014.9 mb 0.00 in0.0 mm 0.00 in0.0 mm 0.00 in0.0 mm
08:40 PM 45.5°F7.5°C 26.5°F-3.1°C 47% 20.0 mph SW32.2 kmh SW 25.0 mph40.2 kmh 29.98 in1015.2 mb 0.00 in0.0 mm 0.00 in0.0 mm 0.00 in0.0 mm
08:45 PM 45.3°F7.4°C 27.8°F-2.3°C 50% 8.0 mph WSW12.9 kmh WSW 25.0 mph40.2 kmh 29.98 in1015.2 mb 0.00 in0.0 mm 0.00 in0.0 mm 0.00 in0.0 mm
08:50 PM 45.1°F7.3°C 27.1°F-2.7°C 49% 10.0 mph SW16.1 kmh SW 25.0 mph40.2 kmh 29.98 in1015.2 mb 0.00 in0.0 mm 0.00 in0.0 mm 0.00 in0.0 mm
08:55 PM 44.9°F7.2°C 27.4°F-2.6°C 50% 13.0 mph SW20.9 kmh SW 16.0 mph25.7 kmh 29.98 in1015.2 mb 0.00 in0.0 mm 0.00 in0.0 mm 0.00 in0.0 mm
09:00 PM 44.7°F7.1°C 27.2°F-2.7°C 50% 22.0 mph SW35.4 kmh SW 25.0 mph40.2 kmh 29.97 in1014.9 mb 0.00 in0.0 mm 0.00 in0.0 mm 0.00 in0.0 mm
09:05 PM 44.5°F6.9°C 26.1°F-3.3°C 48% 10.0 mph SW16.1 kmh SW 26.0 mph41.8 kmh 29.98 in1015.2 mb 0.00 in0.0 mm 0.00 in0.0 mm 0.00 in0.0 mm
09:10 PM 44.4°F6.9°C 27.4°F-2.6°C 51% 10.0 mph SW16.1 kmh SW 19.0 mph30.6 kmh 29.98 in1015.2 mb 0.00 in0.0 mm 0.00 in0.0 mm 0.00 in0.0 mm
09:15 PM 44.2°F6.8°C 26.3°F-3.2°C 49% 10.0 mph SW16.1 kmh SW 29.0 mph46.7 kmh 29.98 in1015.2 mb 0.00 in0.0 mm 0.00 in0.0 mm 0.00 in0.0 mm
09:20 PM 44.1°F6.7°C 26.7°F-2.9°C 50% 14.0 mph SW22.5 kmh SW 29.0 mph46.7 kmh 29.98 in1015.2 mb 0.00 in0.0 mm 0.00 in0.0 mm 0.00 in0.0 mm
09:25 PM 44.0°F6.7°C 27.5°F-2.5°C 52% 16.0 mph SW25.7 kmh SW 26.0 mph41.8 kmh 29.99 in1015.6 mb 0.00 in0.0 mm 0.00 in0.0 mm 0.00 in0.0 mm
09:30 PM 43.9°F6.6°C 26.5°F-3.1°C 50% 24.0 mph WSW38.6 kmh WSW 29.0 mph46.7 kmh 30.00 in1015.9 mb 0.00 in0.0 mm 0.00 in0.0 mm 0.00 in0.0 mm
09:35 PM 43.7°F6.5°C 26.8°F-2.9°C 51% 16.0 mph WSW25.7 kmh WSW 29.0 mph46.7 kmh 30.00 in1015.9 mb 0.00 in0.0 mm 0.00 in0.0 mm 0.00 in0.0 mm
09:40 PM 43.6°F6.4°C 26.2°F-3.2°C 50% 16.0 mph SW25.7 kmh SW 20.0 mph32.2 kmh 30.00 in1015.9 mb 0.00 in0.0 mm 0.00 in0.0 mm 0.00 in0.0 mm
09:45 PM 43.5°F6.4°C 25.6°F-3.6°C 49% 19.0 mph SW30.6 kmh SW 29.0 mph46.7 kmh 30.00 in1015.9 mb 0.00 in0.0 mm 0.00 in0.0 mm 0.00 in0.0 mm
09:50 PM 43.4°F6.3°C 26.0°F-3.3°C 50% 10.0 mph SW16.1 kmh SW 29.0 mph46.7 kmh 30.00 in1015.9 mb 0.00 in0.0 mm 0.00 in0.0 mm 0.00 in0.0 mm
09:55 PM 43.3°F6.3°C 25.9°F-3.4°C 50% 11.0 mph SW17.7 kmh SW 20.0 mph32.2 kmh 30.01 in1016.3 mb 0.00 in0.0 mm 0.00 in0.0 mm 0.00 in0.0 mm
10:00 PM 43.2°F6.2°C 26.3°F-3.2°C 51% 20.0 mph WSW32.2 kmh WSW 27.0 mph43.5 kmh 30.01 in1016.3 mb 0.00 in0.0 mm 0.00 in0.0 mm 0.00 in0.0 mm
10:05 PM 43.1°F6.2°C 26.7°F-2.9°C 52% 14.0 mph SW22.5 kmh SW 30.0 mph48.3 kmh 30.02 in1016.6 mb 0.00 in0.0 mm 0.00 in0.0 mm 0.00 in0.0 mm
10:10 PM 42.9°F6.1°C 26.0°F-3.3°C 51% 17.0 mph WSW27.4 kmh WSW 21.0 mph33.8 kmh 30.01 in1016.3 mb 0.00 in0.0 mm 0.00 in0.0 mm 0.00 in0.0 mm
10:15 PM 42.7°F5.9°C 25.4°F-3.7°C 50% 9.0 mph SW14.5 kmh SW 28.0 mph45.1 kmh 30.02 in1016.6 mb 0.00 in0.0 mm 0.00 in0.0 mm 0.00 in0.0 mm
10:20 PM 42.6°F5.9°C 26.2°F-3.2°C 52% 13.0 mph SW20.9 kmh SW 28.0 mph45.1 kmh 30.03 in1016.9 mb 0.00 in0.0 mm 0.00 in0.0 mm 0.00 in0.0 mm
10:25 PM 42.6°F5.9°C 26.2°F-3.2°C 52% 18.0 mph SW29.0 kmh SW 18.0 mph29.0 kmh 30.03 in1016.9 mb 0.00 in0.0 mm 0.00 in0.0 mm 0.00 in0.0 mm
10:30 PM 42.4°F5.8°C 26.0°F-3.3°C 52% 6.0 mph SW9.7 kmh SW 21.0 mph33.8 kmh 30.03 in1016.9 mb 0.00 in0.0 mm 0.00 in0.0 mm 0.00 in0.0 mm
10:35 PM 42.1°F5.6°C 26.7°F-2.9°C 54% 10.0 mph SW16.1 kmh SW 27.0 mph43.5 kmh 30.03 in1016.9 mb 0.00 in0.0 mm 0.00 in0.0 mm 0.00 in0.0 mm
10:40 PM 42.0°F5.6°C 26.6°F-3.0°C 54% 11.0 mph SW17.7 kmh SW 18.0 mph29.0 kmh 30.04 in1017.3 mb 0.00 in0.0 mm 0.00 in0.0 mm 0.00 in0.0 mm
10:45 PM 41.8°F5.4°C 25.9°F-3.4°C 53% 18.0 mph SW29.0 kmh SW 24.0 mph38.6 kmh 30.04 in1017.3 mb 0.00 in0.0 mm 0.00 in0.0 mm 0.00 in0.0 mm
10:50 PM 41.4°F5.2°C 25.6°F-3.6°C 53% 17.0 mph WSW27.4 kmh WSW 29.0 mph46.7 kmh 30.04 in1017.3 mb 0.00 in0.0 mm 0.00 in0.0 mm 0.00 in0.0 mm
10:55 PM 40.9°F4.9°C 25.1°F-3.8°C 53% 13.0 mph SW20.9 kmh SW 14.0 mph22.5 kmh 30.05 in1017.6 mb 0.00 in0.0 mm 0.00 in0.0 mm 0.00 in0.0 mm
11:00 PM 40.5°F4.7°C 24.3°F-4.3°C 52% 15.0 mph SW24.1 kmh SW 28.0 mph45.1 kmh 30.05 in1017.6 mb 0.00 in0.0 mm 0.00 in0.0 mm 0.00 in0.0 mm
11:05 PM 40.2°F4.6°C 24.5°F-4.2°C 53% 12.0 mph SW19.3 kmh SW 33.0 mph53.1 kmh 30.05 in1017.6 mb 0.00 in0.0 mm 0.00 in0.0 mm 0.00 in0.0 mm
11:10 PM 40.1°F4.5°C 24.4°F-4.2°C 53% 14.0 mph SW22.5 kmh SW 14.0 mph22.5 kmh 30.06 in1017.9 mb 0.00 in0.0 mm 0.00 in0.0 mm 0.00 in0.0 mm
11:15 PM 39.8°F4.3°C 22.7°F-5.2°C 50% 24.0 mph SW38.6 kmh SW 31.0 mph49.9 kmh 30.06 in1017.9 mb 0.00 in0.0 mm 0.00 in0.0 mm 0.00 in0.0 mm
11:20 PM 39.5°F4.2°C 23.4°F-4.8°C 52% 26.0 mph W41.8 kmh W 31.0 mph49.9 kmh 30.06 in1017.9 mb 0.00 in0.0 mm 0.00 in0.0 mm 0.00 in0.0 mm
11:25 PM 39.0°F3.9°C 22.0°F-5.6°C 50% 20.0 mph SW32.2 kmh SW 20.0 mph32.2 kmh 30.07 in1018.3 mb 0.00 in0.0 mm 0.00 in0.0 mm 0.00 in0.0 mm
11:30 PM 38.8°F3.8°C 21.8°F-5.7°C 50% 15.0 mph SSW24.1 kmh SSW 26.0 mph41.8 kmh 30.07 in1018.3 mb 0.00 in0.0 mm 0.00 in0.0 mm 0.00 in0.0 mm
11:35 PM 38.5°F3.6°C 22.4°F-5.3°C 52% 9.0 mph SSW14.5 kmh SSW 26.0 mph41.8 kmh 30.08 in1018.6 mb 0.00 in0.0 mm 0.00 in0.0 mm 0.00 in0.0 mm
11:40 PM 38.4°F3.6°C 21.9°F-5.6°C 51% 19.0 mph SW30.6 kmh SW 24.0 mph38.6 kmh 30.08 in1018.6 mb 0.00 in0.0 mm 0.00 in0.0 mm 0.00 in0.0 mm
11:45 PM 38.4°F3.6°C 23.7°F-4.6°C 55% 18.0 mph SW29.0 kmh SW 24.0 mph38.6 kmh 30.08 in1018.6 mb 0.00 in0.0 mm 0.00 in0.0 mm 0.00 in0.0 mm
11:50 PM 38.0°F3.3°C 21.0°F-6.1°C 50% 17.0 mph SW27.4 kmh SW 35.0 mph56.3 kmh 30.08 in1018.6 mb 0.00 in0.0 mm 0.00 in0.0 mm 0.00 in0.0 mm
11:55 PM 37.5°F3.1°C 20.6°F-6.3°C 50% 21.0 mph WSW33.8 kmh WSW 28.0 mph45.1 kmh 30.08 in1018.6 mb 0.00 in0.0 mm 0.00 in0.0 mm 0.00 in0.0 mm